sensor_id;sensor_type;location;lat;lon;timestamp;P1;durP1;ratioP1;P2;durP2;ratioP2
1350;SDS011;669;50.206;9.998;2023-05-10T00:00:15;4.93;;;4.53;;
1350;SDS011;669;50.206;9.998;2023-05-10T00:02:44;4.77;;;4.30;;
1350;SDS011;669;50.206;9.998;2023-05-10T00:05:12;5.10;;;4.70;;
1350;SDS011;669;50.206;9.998;2023-05-10T00:07:40;4.77;;;4.37;;
1350;SDS011;669;50.206;9.998;2023-05-10T00:10:12;4.67;;;4.37;;
1350;SDS011;669;50.206;9.998;2023-05-10T00:12:40;4.97;;;4.57;;
1350;SDS011;669;50.206;9.998;2023-05-10T00:15:09;4.40;;;4.00;;
1350;SDS011;669;50.206;9.998;2023-05-10T00:17:37;4.27;;;3.90;;
1350;SDS011;669;50.206;9.998;2023-05-10T00:20:06;5.37;;;4.87;;
1350;SDS011;669;50.206;9.998;2023-05-10T00:22:34;5.33;;;4.80;;
1350;SDS011;669;50.206;9.998;2023-05-10T00:25:02;6.10;;;5.50;;
1350;SDS011;669;50.206;9.998;2023-05-10T00:27:32;5.33;;;4.90;;
1350;SDS011;669;50.206;9.998;2023-05-10T00:30:00;5.73;;;5.10;;
1350;SDS011;669;50.206;9.998;2023-05-10T00:32:28;6.03;;;5.43;;
1350;SDS011;669;50.206;9.998;2023-05-10T00:34:56;5.90;;;5.30;;
1350;SDS011;669;50.206;9.998;2023-05-10T00:37:24;5.40;;;4.43;;
1350;SDS011;669;50.206;9.998;2023-05-10T00:39:52;4.23;;;3.93;;
1350;SDS011;669;50.206;9.998;2023-05-10T00:42:20;4.37;;;3.97;;
1350;SDS011;669;50.206;9.998;2023-05-10T00:44:49;5.20;;;4.40;;
1350;SDS011;669;50.206;9.998;2023-05-10T00:47:17;4.97;;;4.57;;
1350;SDS011;669;50.206;9.998;2023-05-10T00:49:45;5.30;;;4.90;;
1350;SDS011;669;50.206;9.998;2023-05-10T00:52:13;4.93;;;3.97;;
1350;SDS011;669;50.206;9.998;2023-05-10T00:54:41;5.40;;;5.00;;
1350;SDS011;669;50.206;9.998;2023-05-10T00:57:09;5.23;;;4.83;;
1350;SDS011;669;50.206;9.998;2023-05-10T00:59:38;5.10;;;4.70;;
1350;SDS011;669;50.206;9.998;2023-05-10T01:02:07;5.70;;;5.27;;
1350;SDS011;669;50.206;9.998;2023-05-10T01:04:35;5.23;;;4.83;;
1350;SDS011;669;50.206;9.998;2023-05-10T01:07:04;4.20;;;3.87;;
1350;SDS011;669;50.206;9.998;2023-05-10T01:09:32;4.93;;;4.53;;
1350;SDS011;669;50.206;9.998;2023-05-10T01:12:01;4.13;;;3.83;;
1350;SDS011;669;50.206;9.998;2023-05-10T01:14:30;4.50;;;4.10;;
1350;SDS011;669;50.206;9.998;2023-05-10T01:16:58;4.53;;;4.20;;
1350;SDS011;669;50.206;9.998;2023-05-10T01:19:28;3.30;;;3.10;;
1350;SDS011;669;50.206;9.998;2023-05-10T01:21:59;5.50;;;3.87;;
1350;SDS011;669;50.206;9.998;2023-05-10T01:24:39;5.03;;;4.53;;
1350;SDS011;669;50.206;9.998;2023-05-10T01:27:34;3.87;;;3.57;;
1350;SDS011;669;50.206;9.998;2023-05-10T01:30:35;4.13;;;3.73;;
1350;SDS011;669;50.206;9.998;2023-05-10T01:33:24;4.07;;;3.77;;
1350;SDS011;669;50.206;9.998;2023-05-10T01:35:59;4.13;;;3.83;;
1350;SDS011;669;50.206;9.998;2023-05-10T01:38:34;4.97;;;4.57;;
1350;SDS011;669;50.206;9.998;2023-05-10T01:41:11;3.30;;;3.07;;
1350;SDS011;669;50.206;9.998;2023-05-10T01:43:45;4.00;;;3.70;;
1350;SDS011;669;50.206;9.998;2023-05-10T01:46:20;4.27;;;3.97;;
1350;SDS011;669;50.206;9.998;2023-05-10T01:48:57;4.20;;;3.80;;
1350;SDS011;669;50.206;9.998;2023-05-10T01:51:27;3.93;;;3.60;;
1350;SDS011;669;50.206;9.998;2023-05-10T01:53:59;3.70;;;3.40;;
1350;SDS011;669;50.206;9.998;2023-05-10T01:56:29;3.80;;;3.50;;
1350;SDS011;669;50.206;9.998;2023-05-10T01:59:00;3.77;;;3.50;;
1350;SDS011;669;50.206;9.998;2023-05-10T02:01:34;4.50;;;4.10;;
1350;SDS011;669;50.206;9.998;2023-05-10T02:04:06;4.90;;;4.40;;
1350;SDS011;669;50.206;9.998;2023-05-10T02:06:35;2.20;;;2.10;;
1350;SDS011;669;50.206;9.998;2023-05-10T02:09:04;1.97;;;1.87;;
1350;SDS011;669;50.206;9.998;2023-05-10T02:11:34;2.30;;;1.70;;
1350;SDS011;669;50.206;9.998;2023-05-10T02:14:05;1.20;;;1.20;;
1350;SDS011;669;50.206;9.998;2023-05-10T02:16:34;4.20;;;1.30;;
1350;SDS011;669;50.206;9.998;2023-05-10T02:19:03;1.40;;;1.30;;
1350;SDS011;669;50.206;9.998;2023-05-10T02:21:34;1.03;;;1.03;;
1350;SDS011;669;50.206;9.998;2023-05-10T02:24:03;1.30;;;1.30;;
1350;SDS011;669;50.206;9.998;2023-05-10T02:26:32;1.27;;;1.17;;
1350;SDS011;669;50.206;9.998;2023-05-10T02:29:02;1.67;;;1.17;;
1350;SDS011;669;50.206;9.998;2023-05-10T02:31:31;1.63;;;1.10;;
1350;SDS011;669;50.206;9.998;2023-05-10T02:34:00;4.67;;;1.73;;
1350;SDS011;669;50.206;9.998;2023-05-10T02:36:31;1.30;;;1.20;;
1350;SDS011;669;50.206;9.998;2023-05-10T02:38:59;1.13;;;0.90;;
1350;SDS011;669;50.206;9.998;2023-05-10T02:41:30;1.33;;;0.93;;
1350;SDS011;669;50.206;9.998;2023-05-10T02:43:59;0.70;;;0.70;;
1350;SDS011;669;50.206;9.998;2023-05-10T02:46:29;1.67;;;1.30;;
1350;SDS011;669;50.206;9.998;2023-05-10T02:48:58;0.93;;;0.93;;
1350;SDS011;669;50.206;9.998;2023-05-10T02:51:27;1.07;;;1.07;;
1350;SDS011;669;50.206;9.998;2023-05-10T02:54:00;0.60;;;0.60;;
1350;SDS011;669;50.206;9.998;2023-05-10T02:56:31;1.63;;;0.70;;
1350;SDS011;669;50.206;9.998;2023-05-10T02:59:01;2.57;;;0.73;;
1350;SDS011;669;50.206;9.998;2023-05-10T03:01:29;0.60;;;0.60;;
1350;SDS011;669;50.206;9.998;2023-05-10T03:03:57;0.87;;;0.50;;
1350;SDS011;669;50.206;9.998;2023-05-10T03:06:25;0.77;;;0.67;;
1350;SDS011;669;50.206;9.998;2023-05-10T03:08:56;1.30;;;0.50;;
1350;SDS011;669;50.206;9.998;2023-05-10T03:11:28;0.60;;;0.50;;
1350;SDS011;669;50.206;9.998;2023-05-10T03:14:09;1.37;;;0.60;;
1350;SDS011;669;50.206;9.998;2023-05-10T03:16:45;0.50;;;0.50;;
1350;SDS011;669;50.206;9.998;2023-05-10T03:19:16;1.50;;;0.60;;
1350;SDS011;669;50.206;9.998;2023-05-10T03:21:50;0.40;;;0.40;;
1350;SDS011;669;50.206;9.998;2023-05-10T03:24:21;0.60;;;0.60;;
1350;SDS011;669;50.206;9.998;2023-05-10T03:26:52;0.70;;;0.70;;
1350;SDS011;669;50.206;9.998;2023-05-10T03:29:23;0.70;;;0.70;;
1350;SDS011;669;50.206;9.998;2023-05-10T03:31:53;0.50;;;0.50;;
1350;SDS011;669;50.206;9.998;2023-05-10T03:34:23;0.57;;;0.40;;
1350;SDS011;669;50.206;9.998;2023-05-10T03:36:51;0.70;;;0.70;;
1350;SDS011;669;50.206;9.998;2023-05-10T03:39:20;0.50;;;0.50;;
1350;SDS011;669;50.206;9.998;2023-05-10T03:41:48;0.60;;;0.60;;
1350;SDS011;669;50.206;9.998;2023-05-10T03:44:16;0.50;;;0.50;;
1350;SDS011;669;50.206;9.998;2023-05-10T03:46:44;0.90;;;0.80;;
1350;SDS011;669;50.206;9.998;2023-05-10T03:49:12;0.67;;;0.40;;
1350;SDS011;669;50.206;9.998;2023-05-10T03:51:40;1.47;;;0.70;;
1350;SDS011;669;50.206;9.998;2023-05-10T03:54:08;0.50;;;0.50;;
1350;SDS011;669;50.206;9.998;2023-05-10T03:56:37;0.40;;;0.40;;
1350;SDS011;669;50.206;9.998;2023-05-10T03:59:05;0.30;;;0.30;;
1350;SDS011;669;50.206;9.998;2023-05-10T04:01:34;0.47;;;0.30;;
1350;SDS011;669;50.206;9.998;2023-05-10T04:04:02;1.60;;;0.43;;
1350;SDS011;669;50.206;9.998;2023-05-10T04:06:31;0.40;;;0.40;;
1350;SDS011;669;50.206;9.998;2023-05-10T04:08:59;0.40;;;0.40;;
1350;SDS011;669;50.206;9.998;2023-05-10T04:11:30;0.40;;;0.40;;
1350;SDS011;669;50.206;9.998;2023-05-10T04:13:59;0.53;;;0.53;;
1350;SDS011;669;50.206;9.998;2023-05-10T04:16:27;0.70;;;0.70;;
1350;SDS011;669;50.206;9.998;2023-05-10T04:18:55;0.60;;;0.60;;
1350;SDS011;669;50.206;9.998;2023-05-10T04:21:23;0.47;;;0.47;;
1350;SDS011;669;50.206;9.998;2023-05-10T04:23:51;0.43;;;0.43;;
1350;SDS011;669;50.206;9.998;2023-05-10T04:26:19;0.63;;;0.63;;
1350;SDS011;669;50.206;9.998;2023-05-10T04:28:48;0.70;;;0.70;;
1350;SDS011;669;50.206;9.998;2023-05-10T04:31:17;1.60;;;0.57;;
1350;SDS011;669;50.206;9.998;2023-05-10T04:33:45;0.50;;;0.50;;
1350;SDS011;669;50.206;9.998;2023-05-10T04:36:13;0.50;;;0.50;;
1350;SDS011;669;50.206;9.998;2023-05-10T04:38:41;0.70;;;0.67;;
1350;SDS011;669;50.206;9.998;2023-05-10T04:41:10;0.50;;;0.50;;
1350;SDS011;669;50.206;9.998;2023-05-10T04:43:38;0.30;;;0.30;;
1350;SDS011;669;50.206;9.998;2023-05-10T04:46:06;0.77;;;0.50;;
1350;SDS011;669;50.206;9.998;2023-05-10T04:48:35;0.53;;;0.53;;
1350;SDS011;669;50.206;9.998;2023-05-10T04:51:03;1.43;;;0.50;;
1350;SDS011;669;50.206;9.998;2023-05-10T04:53:32;0.90;;;0.50;;
1350;SDS011;669;50.206;9.998;2023-05-10T04:56:00;0.63;;;0.63;;
1350;SDS011;669;50.206;9.998;2023-05-10T04:58:28;0.50;;;0.50;;
1350;SDS011;669;50.206;9.998;2023-05-10T05:00:56;1.27;;;0.60;;
1350;SDS011;669;50.206;9.998;2023-05-10T05:03:24;0.40;;;0.40;;
1350;SDS011;669;50.206;9.998;2023-05-10T05:05:53;2.77;;;0.60;;
1350;SDS011;669;50.206;9.998;2023-05-10T05:08:21;1.13;;;1.10;;
1350;SDS011;669;50.206;9.998;2023-05-10T05:10:50;1.07;;;0.50;;
1350;SDS011;669;50.206;9.998;2023-05-10T05:13:18;0.63;;;0.63;;
1350;SDS011;669;50.206;9.998;2023-05-10T05:15:46;0.53;;;0.53;;
1350;SDS011;669;50.206;9.998;2023-05-10T05:18:14;0.87;;;0.70;;
1350;SDS011;669;50.206;9.998;2023-05-10T05:20:42;0.57;;;0.57;;
1350;SDS011;669;50.206;9.998;2023-05-10T05:23:11;0.60;;;0.60;;
1350;SDS011;669;50.206;9.998;2023-05-10T05:25:39;2.20;;;0.50;;
1350;SDS011;669;50.206;9.998;2023-05-10T05:28:07;0.50;;;0.50;;
1350;SDS011;669;50.206;9.998;2023-05-10T05:30:35;0.60;;;0.60;;
1350;SDS011;669;50.206;9.998;2023-05-10T05:33:06;0.70;;;0.70;;
1350;SDS011;669;50.206;9.998;2023-05-10T05:35:34;0.67;;;0.67;;
1350;SDS011;669;50.206;9.998;2023-05-10T05:38:02;0.90;;;0.60;;
1350;SDS011;669;50.206;9.998;2023-05-10T05:40:31;0.50;;;0.50;;
1350;SDS011;669;50.206;9.998;2023-05-10T05:42:59;0.70;;;0.70;;
1350;SDS011;669;50.206;9.998;2023-05-10T05:45:27;2.20;;;1.17;;
1350;SDS011;669;50.206;9.998;2023-05-10T05:47:55;0.57;;;0.57;;
1350;SDS011;669;50.206;9.998;2023-05-10T05:50:23;2.47;;;0.83;;
1350;SDS011;669;50.206;9.998;2023-05-10T05:52:51;0.70;;;0.70;;
1350;SDS011;669;50.206;9.998;2023-05-10T05:55:19;0.40;;;0.40;;
1350;SDS011;669;50.206;9.998;2023-05-10T05:57:48;0.73;;;0.70;;
1350;SDS011;669;50.206;9.998;2023-05-10T06:00:16;3.33;;;1.63;;
1350;SDS011;669;50.206;9.998;2023-05-10T06:02:44;0.87;;;0.87;;
1350;SDS011;669;50.206;9.998;2023-05-10T06:05:12;0.50;;;0.50;;
1350;SDS011;669;50.206;9.998;2023-05-10T06:07:41;0.83;;;0.83;;
1350;SDS011;669;50.206;9.998;2023-05-10T06:10:09;0.60;;;0.60;;
1350;SDS011;669;50.206;9.998;2023-05-10T06:12:37;0.83;;;0.70;;
1350;SDS011;669;50.206;9.998;2023-05-10T06:15:07;0.63;;;0.63;;
1350;SDS011;669;50.206;9.998;2023-05-10T06:17:36;0.87;;;0.83;;
1350;SDS011;669;50.206;9.998;2023-05-10T06:20:05;0.97;;;0.83;;
1350;SDS011;669;50.206;9.998;2023-05-10T06:22:34;0.60;;;0.60;;
1350;SDS011;669;50.206;9.998;2023-05-10T06:25:02;2.60;;;1.07;;
1350;SDS011;669;50.206;9.998;2023-05-10T06:27:30;0.60;;;0.60;;
1350;SDS011;669;50.206;9.998;2023-05-10T06:29:57;2.70;;;1.00;;
1350;SDS011;669;50.206;9.998;2023-05-10T06:32:39;12.40;;;1.40;;
1350;SDS011;669;50.206;9.998;2023-05-10T06:35:07;0.70;;;0.70;;
1350;SDS011;669;50.206;9.998;2023-05-10T06:37:36;2.67;;;0.77;;
1350;SDS011;669;50.206;9.998;2023-05-10T06:40:04;0.70;;;0.70;;
1350;SDS011;669;50.206;9.998;2023-05-10T06:42:33;0.50;;;0.50;;
1350;SDS011;669;50.206;9.998;2023-05-10T06:45:01;1.00;;;0.60;;
1350;SDS011;669;50.206;9.998;2023-05-10T06:47:29;0.50;;;0.50;;
1350;SDS011;669;50.206;9.998;2023-05-10T06:49:59;0.83;;;0.83;;
1350;SDS011;669;50.206;9.998;2023-05-10T06:52:27;3.90;;;0.70;;
1350;SDS011;669;50.206;9.998;2023-05-10T06:54:54;0.53;;;0.53;;
1350;SDS011;669;50.206;9.998;2023-05-10T06:57:23;0.53;;;0.53;;
1350;SDS011;669;50.206;9.998;2023-05-10T06:59:57;0.50;;;0.50;;
1350;SDS011;669;50.206;9.998;2023-05-10T07:02:25;0.50;;;0.50;;
1350;SDS011;669;50.206;9.998;2023-05-10T07:04:53;0.57;;;0.57;;
1350;SDS011;669;50.206;9.998;2023-05-10T07:07:22;0.83;;;0.60;;
1350;SDS011;669;50.206;9.998;2023-05-10T07:09:50;1.27;;;0.70;;
1350;SDS011;669;50.206;9.998;2023-05-10T07:12:18;0.60;;;0.60;;
1350;SDS011;669;50.206;9.998;2023-05-10T07:14:46;1.97;;;0.70;;
1350;SDS011;669;50.206;9.998;2023-05-10T07:17:14;0.43;;;0.43;;
1350;SDS011;669;50.206;9.998;2023-05-10T07:19:42;0.60;;;0.60;;
1350;SDS011;669;50.206;9.998;2023-05-10T07:22:09;1.17;;;1.17;;
1350;SDS011;669;50.206;9.998;2023-05-10T07:24:39;0.60;;;0.60;;
1350;SDS011;669;50.206;9.998;2023-05-10T07:27:07;1.23;;;0.80;;
1350;SDS011;669;50.206;9.998;2023-05-10T07:29:35;0.60;;;0.60;;
1350;SDS011;669;50.206;9.998;2023-05-10T07:32:03;0.90;;;0.90;;
1350;SDS011;669;50.206;9.998;2023-05-10T07:34:32;1.50;;;0.73;;
1350;SDS011;669;50.206;9.998;2023-05-10T07:37:00;0.73;;;0.73;;
1350;SDS011;669;50.206;9.998;2023-05-10T07:39:28;4.07;;;0.80;;
1350;SDS011;669;50.206;9.998;2023-05-10T07:41:57;3.60;;;1.00;;
1350;SDS011;669;50.206;9.998;2023-05-10T07:44:25;0.80;;;0.80;;
1350;SDS011;669;50.206;9.998;2023-05-10T07:46:53;0.80;;;0.80;;
1350;SDS011;669;50.206;9.998;2023-05-10T07:49:21;0.70;;;0.70;;
1350;SDS011;669;50.206;9.998;2023-05-10T07:51:50;1.47;;;1.37;;
1350;SDS011;669;50.206;9.998;2023-05-10T07:54:18;1.10;;;0.97;;
1350;SDS011;669;50.206;9.998;2023-05-10T07:56:46;1.10;;;1.10;;
1350;SDS011;669;50.206;9.998;2023-05-10T07:59:16;1.00;;;1.00;;
1350;SDS011;669;50.206;9.998;2023-05-10T08:01:44;1.27;;;1.20;;
1350;SDS011;669;50.206;9.998;2023-05-10T08:04:12;1.60;;;1.50;;
1350;SDS011;669;50.206;9.998;2023-05-10T08:06:40;1.67;;;1.67;;
1350;SDS011;669;50.206;9.998;2023-05-10T08:09:08;3.13;;;1.57;;
1350;SDS011;669;50.206;9.998;2023-05-10T08:11:37;3.60;;;2.40;;
1350;SDS011;669;50.206;9.998;2023-05-10T08:14:05;4.13;;;2.47;;
1350;SDS011;669;50.206;9.998;2023-05-10T08:16:34;2.30;;;2.20;;
1350;SDS011;669;50.206;9.998;2023-05-10T08:19:02;2.77;;;2.60;;
1350;SDS011;669;50.206;9.998;2023-05-10T08:21:30;4.53;;;2.00;;
1350;SDS011;669;50.206;9.998;2023-05-10T08:23:58;2.70;;;2.50;;
1350;SDS011;669;50.206;9.998;2023-05-10T08:26:26;2.40;;;2.30;;
1350;SDS011;669;50.206;9.998;2023-05-10T08:28:54;3.30;;;2.30;;
1350;SDS011;669;50.206;9.998;2023-05-10T08:31:22;2.80;;;2.60;;
1350;SDS011;669;50.206;9.998;2023-05-10T08:33:51;2.07;;;1.97;;
1350;SDS011;669;50.206;9.998;2023-05-10T08:36:19;2.40;;;2.30;;
1350;SDS011;669;50.206;9.998;2023-05-10T08:38:50;4.00;;;2.40;;
1350;SDS011;669;50.206;9.998;2023-05-10T08:41:19;1.83;;;1.83;;
1350;SDS011;669;50.206;9.998;2023-05-10T08:43:48;2.33;;;2.20;;
1350;SDS011;669;50.206;9.998;2023-05-10T08:46:17;2.67;;;2.47;;
1350;SDS011;669;50.206;9.998;2023-05-10T08:48:47;2.33;;;2.23;;
1350;SDS011;669;50.206;9.998;2023-05-10T08:51:18;2.50;;;2.30;;
1350;SDS011;669;50.206;9.998;2023-05-10T08:53:49;2.83;;;2.50;;
1350;SDS011;669;50.206;9.998;2023-05-10T08:56:18;2.20;;;2.00;;
1350;SDS011;669;50.206;9.998;2023-05-10T08:58:46;2.13;;;2.03;;
1350;SDS011;669;50.206;9.998;2023-05-10T09:01:15;2.37;;;2.27;;
1350;SDS011;669;50.206;9.998;2023-05-10T09:03:44;3.50;;;2.80;;
1350;SDS011;669;50.206;9.998;2023-05-10T09:06:14;2.77;;;2.60;;
1350;SDS011;669;50.206;9.998;2023-05-10T09:08:44;2.53;;;2.33;;
1350;SDS011;669;50.206;9.998;2023-05-10T09:11:12;3.80;;;2.80;;
1350;SDS011;669;50.206;9.998;2023-05-10T09:13:41;4.70;;;2.60;;
1350;SDS011;669;50.206;9.998;2023-05-10T09:16:09;2.93;;;2.73;;
1350;SDS011;669;50.206;9.998;2023-05-10T09:18:47;3.27;;;3.00;;
1350;SDS011;669;50.206;9.998;2023-05-10T09:21:16;3.17;;;2.87;;
1350;SDS011;669;50.206;9.998;2023-05-10T09:23:45;4.03;;;2.73;;
1350;SDS011;669;50.206;9.998;2023-05-10T09:26:14;4.30;;;3.90;;
1350;SDS011;669;50.206;9.998;2023-05-10T09:28:51;3.10;;;2.90;;
1350;SDS011;669;50.206;9.998;2023-05-10T09:31:20;3.83;;;3.53;;
1350;SDS011;669;50.206;9.998;2023-05-10T09:33:49;3.70;;;3.17;;
1350;SDS011;669;50.206;9.998;2023-05-10T09:36:17;4.30;;;3.50;;
1350;SDS011;669;50.206;9.998;2023-05-10T09:38:47;3.00;;;2.70;;
1350;SDS011;669;50.206;9.998;2023-05-10T09:41:16;2.87;;;2.57;;
1350;SDS011;669;50.206;9.998;2023-05-10T09:43:44;3.70;;;3.40;;
1350;SDS011;669;50.206;9.998;2023-05-10T09:46:12;2.77;;;2.57;;
1350;SDS011;669;50.206;9.998;2023-05-10T09:48:41;2.97;;;2.57;;
1350;SDS011;669;50.206;9.998;2023-05-10T09:51:10;2.87;;;2.53;;
1350;SDS011;669;50.206;9.998;2023-05-10T09:53:38;3.27;;;2.97;;
1350;SDS011;669;50.206;9.998;2023-05-10T09:56:07;3.33;;;3.10;;
1350;SDS011;669;50.206;9.998;2023-05-10T09:58:36;2.83;;;2.63;;
1350;SDS011;669;50.206;9.998;2023-05-10T10:01:05;3.07;;;2.87;;
1350;SDS011;669;50.206;9.998;2023-05-10T10:03:41;4.10;;;2.57;;
1350;SDS011;669;50.206;9.998;2023-05-10T10:06:09;3.20;;;2.90;;
1350;SDS011;669;50.206;9.998;2023-05-10T10:08:54;4.43;;;3.17;;
1350;SDS011;669;50.206;9.998;2023-05-10T10:11:25;3.90;;;3.60;;
1350;SDS011;669;50.206;9.998;2023-05-10T10:13:54;3.83;;;3.63;;
1350;SDS011;669;50.206;9.998;2023-05-10T10:16:22;5.77;;;4.30;;
1350;SDS011;669;50.206;9.998;2023-05-10T10:18:51;6.10;;;3.40;;
1350;SDS011;669;50.206;9.998;2023-05-10T10:21:19;4.40;;;4.00;;
1350;SDS011;669;50.206;9.998;2023-05-10T10:23:47;5.87;;;4.00;;
1350;SDS011;669;50.206;9.998;2023-05-10T10:26:15;4.27;;;3.97;;
1350;SDS011;669;50.206;9.998;2023-05-10T10:28:48;6.97;;;4.27;;
1350;SDS011;669;50.206;9.998;2023-05-10T10:31:23;6.00;;;3.90;;
1350;SDS011;669;50.206;9.998;2023-05-10T10:34:00;6.40;;;4.93;;
1350;SDS011;669;50.206;9.998;2023-05-10T10:36:32;4.70;;;4.40;;
1350;SDS011;669;50.206;9.998;2023-05-10T10:39:08;3.93;;;3.73;;
1350;SDS011;669;50.206;9.998;2023-05-10T10:41:38;4.13;;;3.63;;
1350;SDS011;669;50.206;9.998;2023-05-10T10:44:23;4.30;;;4.00;;
1350;SDS011;669;50.206;9.998;2023-05-10T10:46:59;4.00;;;3.70;;
1350;SDS011;669;50.206;9.998;2023-05-10T10:49:30;6.37;;;4.40;;
1350;SDS011;669;50.206;9.998;2023-05-10T10:52:15;3.73;;;3.43;;
1350;SDS011;669;50.206;9.998;2023-05-10T10:54:51;6.17;;;3.80;;
1350;SDS011;669;50.206;9.998;2023-05-10T10:57:19;4.73;;;4.33;;
1350;SDS011;669;50.206;9.998;2023-05-10T10:59:50;3.00;;;2.80;;
1350;SDS011;669;50.206;9.998;2023-05-10T11:02:33;5.80;;;2.90;;
1350;SDS011;669;50.206;9.998;2023-05-10T11:05:26;2.93;;;2.73;;
1350;SDS011;669;50.206;9.998;2023-05-10T11:08:09;3.50;;;3.20;;
1350;SDS011;669;50.206;9.998;2023-05-10T11:10:52;2.80;;;2.60;;
1350;SDS011;669;50.206;9.998;2023-05-10T11:13:31;3.87;;;3.57;;
1350;SDS011;669;50.206;9.998;2023-05-10T11:16:10;2.20;;;2.10;;
1350;SDS011;669;50.206;9.998;2023-05-10T11:18:40;2.30;;;2.20;;
1350;SDS011;669;50.206;9.998;2023-05-10T11:21:18;2.47;;;2.27;;
1350;SDS011;669;50.206;9.998;2023-05-10T11:23:50;2.53;;;1.80;;
1350;SDS011;669;50.206;9.998;2023-05-10T11:26:22;2.60;;;2.40;;
1350;SDS011;669;50.206;9.998;2023-05-10T11:28:52;1.90;;;1.80;;
1350;SDS011;669;50.206;9.998;2023-05-10T11:31:23;2.60;;;1.77;;
1350;SDS011;669;50.206;9.998;2023-05-10T11:33:54;1.90;;;1.80;;
1350;SDS011;669;50.206;9.998;2023-05-10T11:36:24;2.50;;;1.50;;
1350;SDS011;669;50.206;9.998;2023-05-10T11:38:53;3.80;;;1.97;;
1350;SDS011;669;50.206;9.998;2023-05-10T11:41:23;2.30;;;2.00;;
1350;SDS011;669;50.206;9.998;2023-05-10T11:43:52;4.90;;;2.77;;
1350;SDS011;669;50.206;9.998;2023-05-10T11:46:21;3.07;;;2.23;;
1350;SDS011;669;50.206;9.998;2023-05-10T11:48:53;2.13;;;1.93;;
1350;SDS011;669;50.206;9.998;2023-05-10T11:51:26;3.40;;;2.13;;
1350;SDS011;669;50.206;9.998;2023-05-10T11:53:55;1.60;;;1.50;;
1350;SDS011;669;50.206;9.998;2023-05-10T11:56:23;1.33;;;1.33;;
1350;SDS011;669;50.206;9.998;2023-05-10T11:58:53;1.70;;;1.30;;
1350;SDS011;669;50.206;9.998;2023-05-10T12:01:24;2.20;;;1.83;;
1350;SDS011;669;50.206;9.998;2023-05-10T12:03:54;1.90;;;1.50;;
1350;SDS011;669;50.206;9.998;2023-05-10T12:06:26;2.10;;;1.37;;
1350;SDS011;669;50.206;9.998;2023-05-10T12:08:54;4.73;;;1.60;;
1350;SDS011;669;50.206;9.998;2023-05-10T12:11:24;2.40;;;1.37;;
1350;SDS011;669;50.206;9.998;2023-05-10T12:13:53;1.97;;;1.50;;
1350;SDS011;669;50.206;9.998;2023-05-10T12:16:24;1.50;;;1.40;;
1350;SDS011;669;50.206;9.998;2023-05-10T12:18:53;4.33;;;1.50;;
1350;SDS011;669;50.206;9.998;2023-05-10T12:21:23;1.33;;;1.33;;
1350;SDS011;669;50.206;9.998;2023-05-10T12:23:51;1.97;;;1.10;;
1350;SDS011;669;50.206;9.998;2023-05-10T12:26:21;3.90;;;1.27;;
1350;SDS011;669;50.206;9.998;2023-05-10T12:28:49;2.03;;;1.40;;
1350;SDS011;669;50.206;9.998;2023-05-10T12:31:17;1.10;;;1.10;;
1350;SDS011;669;50.206;9.998;2023-05-10T12:33:46;1.00;;;1.00;;
1350;SDS011;669;50.206;9.998;2023-05-10T12:36:15;1.90;;;1.70;;
1350;SDS011;669;50.206;9.998;2023-05-10T12:38:44;1.37;;;1.30;;
1350;SDS011;669;50.206;9.998;2023-05-10T12:41:14;1.50;;;1.40;;
1350;SDS011;669;50.206;9.998;2023-05-10T12:43:43;1.97;;;1.43;;
1350;SDS011;669;50.206;9.998;2023-05-10T12:46:13;1.60;;;1.50;;
1350;SDS011;669;50.206;9.998;2023-05-10T12:48:42;1.73;;;1.63;;
1350;SDS011;669;50.206;9.998;2023-05-10T12:51:12;1.77;;;1.67;;
1350;SDS011;669;50.206;9.998;2023-05-10T12:53:43;2.00;;;1.50;;
1350;SDS011;669;50.206;9.998;2023-05-10T12:56:15;1.47;;;1.47;;
1350;SDS011;669;50.206;9.998;2023-05-10T12:58:42;2.60;;;1.50;;
1350;SDS011;669;50.206;9.998;2023-05-10T13:01:14;1.80;;;1.70;;
1350;SDS011;669;50.206;9.998;2023-05-10T13:03:42;5.03;;;2.30;;
1350;SDS011;669;50.206;9.998;2023-05-10T13:06:10;1.50;;;1.17;;
1350;SDS011;669;50.206;9.998;2023-05-10T13:08:40;1.33;;;1.23;;
1350;SDS011;669;50.206;9.998;2023-05-10T13:11:08;1.83;;;1.73;;
1350;SDS011;669;50.206;9.998;2023-05-10T13:13:36;1.03;;;0.93;;
1350;SDS011;669;50.206;9.998;2023-05-10T13:16:04;1.10;;;1.00;;
1350;SDS011;669;50.206;9.998;2023-05-10T13:18:33;1.27;;;1.17;;
1350;SDS011;669;50.206;9.998;2023-05-10T13:21:01;1.20;;;1.20;;
1350;SDS011;669;50.206;9.998;2023-05-10T13:23:30;1.90;;;1.50;;
1350;SDS011;669;50.206;9.998;2023-05-10T13:25:59;2.17;;;1.47;;
1350;SDS011;669;50.206;9.998;2023-05-10T13:28:27;1.20;;;1.20;;
1350;SDS011;669;50.206;9.998;2023-05-10T13:30:55;1.23;;;1.13;;
1350;SDS011;669;50.206;9.998;2023-05-10T13:33:23;2.10;;;1.07;;
1350;SDS011;669;50.206;9.998;2023-05-10T13:35:51;1.77;;;1.67;;
1350;SDS011;669;50.206;9.998;2023-05-10T13:38:21;1.23;;;1.23;;
1350;SDS011;669;50.206;9.998;2023-05-10T13:40:48;1.20;;;1.10;;
1350;SDS011;669;50.206;9.998;2023-05-10T13:43:20;2.67;;;1.50;;
1350;SDS011;669;50.206;9.998;2023-05-10T13:45:48;1.27;;;1.13;;
1350;SDS011;669;50.206;9.998;2023-05-10T13:48:16;1.00;;;1.00;;
1350;SDS011;669;50.206;9.998;2023-05-10T13:50:44;1.57;;;1.47;;
1350;SDS011;669;50.206;9.998;2023-05-10T13:53:12;1.17;;;1.17;;
1350;SDS011;669;50.206;9.998;2023-05-10T13:55:40;1.70;;;1.33;;
1350;SDS011;669;50.206;9.998;2023-05-10T13:58:08;1.43;;;1.33;;
1350;SDS011;669;50.206;9.998;2023-05-10T14:00:38;1.33;;;1.23;;
1350;SDS011;669;50.206;9.998;2023-05-10T14:03:06;3.00;;;1.50;;
1350;SDS011;669;50.206;9.998;2023-05-10T14:05:35;1.53;;;1.43;;
1350;SDS011;669;50.206;9.998;2023-05-10T14:08:03;1.07;;;1.00;;
1350;SDS011;669;50.206;9.998;2023-05-10T14:10:31;1.37;;;1.37;;
1350;SDS011;669;50.206;9.998;2023-05-10T14:12:59;0.87;;;0.87;;
1350;SDS011;669;50.206;9.998;2023-05-10T14:15:27;1.87;;;1.20;;
1350;SDS011;669;50.206;9.998;2023-05-10T14:17:56;2.13;;;1.50;;
1350;SDS011;669;50.206;9.998;2023-05-10T14:20:25;1.83;;;1.73;;
1350;SDS011;669;50.206;9.998;2023-05-10T14:22:53;1.10;;;1.10;;
1350;SDS011;669;50.206;9.998;2023-05-10T14:25:20;1.27;;;1.27;;
1350;SDS011;669;50.206;9.998;2023-05-10T14:27:48;1.03;;;0.97;;
1350;SDS011;669;50.206;9.998;2023-05-10T14:30:17;1.57;;;1.30;;
1350;SDS011;669;50.206;9.998;2023-05-10T14:32:44;1.00;;;1.00;;
1350;SDS011;669;50.206;9.998;2023-05-10T14:35:14;0.90;;;0.90;;
1350;SDS011;669;50.206;9.998;2023-05-10T14:37:44;2.73;;;1.27;;
1350;SDS011;669;50.206;9.998;2023-05-10T14:40:12;1.20;;;1.20;;
1350;SDS011;669;50.206;9.998;2023-05-10T14:42:41;0.90;;;0.90;;
1350;SDS011;669;50.206;9.998;2023-05-10T14:45:10;2.97;;;0.90;;
1350;SDS011;669;50.206;9.998;2023-05-10T14:47:38;1.27;;;1.10;;
1350;SDS011;669;50.206;9.998;2023-05-10T14:50:06;1.63;;;0.93;;
1350;SDS011;669;50.206;9.998;2023-05-10T14:52:36;0.90;;;0.90;;
1350;SDS011;669;50.206;9.998;2023-05-10T14:55:04;0.90;;;0.90;;
1350;SDS011;669;50.206;9.998;2023-05-10T14:57:33;2.40;;;1.13;;
1350;SDS011;669;50.206;9.998;2023-05-10T15:00:01;6.60;;;1.23;;
1350;SDS011;669;50.206;9.998;2023-05-10T15:02:30;2.63;;;1.50;;
1350;SDS011;669;50.206;9.998;2023-05-10T15:04:59;3.17;;;1.90;;
1350;SDS011;669;50.206;9.998;2023-05-10T15:07:27;1.40;;;1.30;;
1350;SDS011;669;50.206;9.998;2023-05-10T15:09:56;1.13;;;1.03;;
1350;SDS011;669;50.206;9.998;2023-05-10T15:12:24;0.80;;;0.80;;
1350;SDS011;669;50.206;9.998;2023-05-10T15:14:52;0.67;;;0.67;;
1350;SDS011;669;50.206;9.998;2023-05-10T15:17:20;3.10;;;0.70;;
1350;SDS011;669;50.206;9.998;2023-05-10T15:19:48;1.73;;;1.10;;
1350;SDS011;669;50.206;9.998;2023-05-10T15:22:16;0.67;;;0.67;;
1350;SDS011;669;50.206;9.998;2023-05-10T15:24:44;1.00;;;1.00;;
1350;SDS011;669;50.206;9.998;2023-05-10T15:27:13;2.23;;;2.13;;
1350;SDS011;669;50.206;9.998;2023-05-10T15:29:41;1.33;;;1.00;;
1350;SDS011;669;50.206;9.998;2023-05-10T15:32:09;1.17;;;0.90;;
1350;SDS011;669;50.206;9.998;2023-05-10T15:34:37;1.83;;;1.10;;
1350;SDS011;669;50.206;9.998;2023-05-10T15:37:05;1.23;;;1.10;;
1350;SDS011;669;50.206;9.998;2023-05-10T15:39:32;1.87;;;0.70;;
1350;SDS011;669;50.206;9.998;2023-05-10T15:42:00;2.10;;;0.83;;
1350;SDS011;669;50.206;9.998;2023-05-10T15:44:30;0.50;;;0.50;;